Latest Coastal Weather Observations for Lord Howe Island

IDN60701

Issued at 8:22 pm EST Tuesday 27 September 2016 (issued every 10 minutes, with the page automatically refreshed every 10 minutes)

About coastal observations | Map of coastal stations | Coastal observations for NSW | Marine services | Other Formats
Station Details ID: 200839 Name: LORD HOWE ISLAND AERO Lat: -31.54 Lon: 159.08 Height: 5.0 m
Data from the previous 72 hours. | See also: Recent months at Lord Howe Island
Date/Time
EST
Temp
°C
Wind Pressure Rain since
9am
mm
Weather Cloud Vis
km
Sea
Height
m
Swell
Dir  Spd
kts
Gust
kts
hPa Trend Height
m
Period
s
Dir
27/08:00pm 18.1 W 13 17 1008.5 - 0.0 - Partly cloudy 10 - - - -
27/07:30pm 18.3 W 15 20 1008.4 - 0.0 - Partly cloudy 10 - - - -
27/07:00pm 18.1 W 13 16 1008.6 - 0.0 - Partly cloudy 10 - - - -
27/06:30pm 18.1 W 13 16 1008.6 - 0.0 - Partly cloudy 10 - - - -
27/06:00pm 18.0 W 13 16 1008.6 - 0.0 - Partly cloudy 10 - - - -
27/05:30pm 18.0 W 15 17 1008.5 - 0.0 - Partly cloudy 10 - - - -
27/05:00pm 18.7 WSW 11 15 1008.1 - 0.0 - Partly cloudy 10 - - - -
27/04:30pm 18.7 WSW 15 20 1008.1 - 0.0 - Partly cloudy 10 - - - -
27/04:00pm 18.9 WSW 14 17 1008.0 - 0.0 - Partly cloudy 10 - - - -
27/03:30pm 18.8 WSW 15 19 1007.9 - 0.0 - Partly cloudy 10 - - - -
27/03:00pm 19.6 WSW 13 18 1007.8 - 0.0 - Partly cloudy 10 - - - -
27/02:30pm 19.6 WSW 16 20 1008.0 - 0.0 - Mostly clear 10 - - - -
27/02:00pm 19.8 WSW 15 18 1008.3 - 0.0 - Partly cloudy 10 - - - -
27/01:30pm 19.5 W 14 18 1008.5 - 0.0 - Partly cloudy 10 - - - -
27/01:00pm 19.8 W 14 18 1008.6 - 0.0 - Mostly clear 10 - - - -
27/12:30pm 19.2 W 15 18 1008.9 - 0.0 - Mostly clear 10 - - - -
27/12:00pm 18.5 W 15 18 1009.2 - 0.0 Showers Partly cloudy 10 - - - -
27/11:30am 19.5 WSW 13 16 1009.4 - 0.0 - Mostly clear 10 - - - -
27/11:00am 19.2 WSW 12 16 1009.6 - 0.0 - Mostly clear 10 - - - -
27/10:30am 19.2 WSW 13 17 1010.0 - 0.0 - Mostly clear 10 - - - -
27/10:00am 19.1 SW 11 15 1010.2 - 0.0 - Mostly clear 10 - - - -
27/09:30am 19.5 SW 13 20 1010.3 - 0.0 Showers Mostly clear 10 - - - -
27/09:00am 18.9 SW 13 19 1010.4 - 0.0 - Mostly clear 10 - - - -
27/08:30am 18.6 SW 12 17 1010.4 - 0.0 - Partly cloudy 10 - - - -
27/08:00am 18.2 SW 13 20 1010.6 - 0.0 - Mostly cloudy 10 - - - -
27/07:51am 17.6 SW 15 25 1010.5 - 0.0 - Mostly cloudy 10 - - - -
27/07:30am 19.0 WSW 17 22 1010.1 - 0.0 - Mostly cloudy 10 - - - -
27/07:00am 18.7 WSW 17 22 1010.0 - 0.0 - Partly cloudy 10 - - - -
27/06:30am 18.2 WSW 16 21 1009.8 - 0.0 - Partly cloudy 10 - - - -
27/06:00am 18.1 WSW 18 23 1009.5 - 0.0 - Partly cloudy 10 - - - -
27/05:30am 18.0 WSW 15 22 1009.4 - 0.0 - Mostly clear 10 - - - -
27/05:00am 17.9 WSW 15 22 1009.3 - 0.0 - Partly cloudy 10 - - - -
27/04:30am 17.9 SW 15 22 1009.1 - 0.0 - Partly cloudy 10 - - - -
27/04:00am 17.9 WSW 17 24 1008.9 - 0.0 - Partly cloudy 10 - - - -
27/03:30am 17.8 SW 13 20 1008.8 - 0.0 - Partly cloudy 10 - - - -
27/03:00am 17.8 WSW 15 22 1008.7 - 0.0 - Partly cloudy 10 - - - -
27/02:30am 17.9 WSW 17 23 1008.7 - 0.0 - Mostly clear 10 - - - -
27/02:00am 18.0 WSW 15 22 1008.6 - 0.0 - Partly cloudy 10 - - - -
27/01:30am 18.0 SW 16 23 1008.7 - 0.0 - Partly cloudy 10 - - - -
27/01:00am 18.1 SW 16 22 1008.8 - 0.0 - Partly cloudy 10 - - - -
27/12:30am 18.3 SW 16 24 1009.0 - 0.0 - Partly cloudy 10 - - - -
27/12:00am 18.3 SW 14 21 1009.2 - 0.0 - Partly cloudy 10 - - - -
 
Date/Time
EST
Temp
°C
Wind Pressure Rain since
9am
mm
Weather Cloud Vis
km
Sea
Height
m
Swell
Dir  Spd
kts
Gust
kts
hPa Trend Height
m
Period
s
Dir
26/11:30pm 18.3 SW 15 25 1009.4 - 0.0 - Mostly clear 10 - - - -
26/11:00pm 18.3 SW 15 21 1009.3 - 0.0 - Partly cloudy 10 - - - -
26/10:30pm 18.4 WSW 15 21 1009.4 - 0.0 - Partly cloudy 10 - - - -
26/10:00pm 18.3 SW 15 22 1009.2 - 0.0 - Partly cloudy 10 - - - -
26/09:30pm 18.2 SW 13 18 1009.2 - 0.0 - Partly cloudy 10 - - - -
26/09:00pm 18.2 SW 12 17 1009.0 - 0.0 - - 10 - - - -
26/08:30pm 18.4 SW 13 19 1009.1 - 0.0 - Partly cloudy 10 - - - -
26/08:00pm 18.1 SW 13 20 1009.3 - 0.0 - Partly cloudy 10 - - - -
26/07:30pm 18.5 SW 14 21 1009.2 - 0.0 - Partly cloudy 10 - - - -
26/07:00pm 18.5 SW 14 19 1009.1 - 0.0 - Partly cloudy 10 - - - -
26/06:30pm 18.6 SW 15 23 1008.7 - 0.0 - Partly cloudy 10 - - - -
26/06:00pm 18.6 SW 16 23 1008.3 - 0.0 - Partly cloudy 10 - - - -
26/05:30pm 18.5 SW 16 23 1008.0 - 0.0 - Cloudy 10 - - - -
26/05:00pm 18.6 SW 16 24 1007.8 - 0.0 - Partly cloudy 10 - - - -
26/04:30pm 18.7 SW 15 23 1007.5 - 0.0 - Mostly cloudy 10 - - - -
26/04:06pm 19.0 SW 15 25 1007.3 - 0.0 - Mostly cloudy 10 - - - -
26/04:00pm 18.9 SW 17 25 1007.3 - 0.0 - Mostly cloudy 10 - - - -
26/03:30pm 19.0 SW 16 23 1007.0 - 0.0 - Mostly cloudy 10 - - - -
26/03:00pm 19.4 SW 15 20 1006.8 - 0.0 - Partly cloudy 10 - - - -
26/02:30pm 19.4 SW 15 21 1006.7 - 0.0 - Partly cloudy 10 - - - -
26/02:00pm 19.4 SW 17 24 1006.6 - 0.0 - Mostly clear 10 - - - -
26/01:30pm 19.5 SW 16 27 1006.6 - 0.0 - Mostly clear 10 - - - -
26/01:09pm 19.6 SW 16 27 1006.7 - 0.0 - Mostly clear 10 - - - -
26/01:00pm 19.6 SW 16 24 1006.6 - 0.0 - Mostly clear 10 - - - -
26/12:30pm 19.2 SW 17 26 1006.7 - 0.0 - Mostly clear 10 - - - -
26/12:00pm 19.9 SW 17 25 1006.6 - 0.0 - Mostly clear 10 - - - -
26/11:30am 19.4 SW 16 23 1006.9 - 0.0 - Mostly cloudy 10 - - - -
26/11:00am 19.4 SW 14 24 1007.1 - 0.0 - Mostly clear 10 - - - -
26/10:30am 19.2 SW 17 25 1007.0 - 0.0 Showers Mostly cloudy 10 - - - -
26/10:14am 19.5 SW 15 25 1006.9 - 0.0 - Mostly cloudy 10 - - - -
26/10:00am 19.3 SW 15 23 1007.0 - 0.0 - Mostly cloudy 10 - - - -
26/09:35am 19.2 SW 16 27 1007.1 - 0.0 - Mostly cloudy 10 - - - -
26/09:30am 19.1 SW 16 24 1007.1 - 0.0 - Mostly cloudy 10 - - - -
26/09:18am 19.1 SW 17 28 1007.0 - 0.0 - Partly cloudy 10 - - - -
26/09:00am 18.8 SW 16 25 1007.1 - 0.0 - Mostly cloudy 10 - - - -
26/08:30am 18.7 SW 15 24 1006.9 - 9.8 - Mostly cloudy 10 - - - -
26/08:00am 18.4 SW 15 26 1006.9 - 9.6 Showers Mostly clear 8 - - - -
26/07:54am 17.8 SW 16 26 1006.9 - 9.6 Showers Mostly clear 8 - - - -
26/07:30am 18.9 SW 15 21 1006.7 - 9.4 - Mostly clear 10 - - - -
26/07:08am 17.6 SW 16 28 1006.4 - 9.4 - Partly cloudy 10 - - - -
26/07:00am 18.6 SW 15 20 1006.3 - 9.4 - Partly cloudy 10 - - - -
26/06:30am 18.5 SW 13 21 1006.0 - 9.4 - Partly cloudy 10 - - - -
26/06:00am 18.2 SW 15 21 1005.6 - 9.4 - Partly cloudy 10 - - - -
26/05:35am 17.6 SW 15 25 1005.3 - 9.4 - Partly cloudy 10 - - - -
26/05:30am 17.6 SW 17 25 1005.3 - 9.4 - Cloudy 10 - - - -
26/05:00am 17.6 SW 14 21 1005.0 - 9.4 - Partly cloudy 10 - - - -
26/04:54am 17.3 SW 15 22 1005.0 - 9.4 - Partly cloudy 10 - - - -
26/04:35am 17.0 SW 12 20 1004.9 - 9.2 - Partly cloudy 6 - - - -
26/04:30am 17.5 SW 11 20 1004.8 - 8.0 - Partly cloudy 10 - - - -
26/04:00am 17.8 SW 14 20 1004.5 - 8.0 - Partly cloudy 10 - - - -
26/03:30am 18.0 SW 14 20 1004.1 - 8.0 - Partly cloudy 10 - - - -
26/03:00am 17.2 SW 17 27 1004.0 - 8.0 - Partly cloudy 10 - - - -
26/02:53am 18.1 WSW 15 27 1003.8 - 8.0 - Partly cloudy 10 - - - -
26/02:30am 17.2 SW 12 20 1003.9 - 8.0 - Cloudy 10 - - - -
26/02:00am 18.2 WSW 13 20 1003.9 - 7.8 - Partly cloudy 10 - - - -
26/01:30am 18.0 WSW 15 20 1004.1 - 7.8 - Partly cloudy 10 - - - -
26/01:00am 17.8 WSW 10 15 1004.2 - 7.8 - Partly cloudy 10 - - - -
26/12:30am 16.3 SW 7 9 1004.6 - 7.8 - Partly cloudy 10 - - - -
26/12:00am 15.8 SSW 5 7 1004.8 - 7.8 - Partly cloudy 10 - - - -
 
Date/Time
EST
Temp
°C
Wind Pressure Rain since
9am
mm
Weather Cloud Vis
km
Sea
Height
m
Swell
Dir  Spd
kts
Gust
kts
hPa Trend Height
m
Period
s
Dir
25/11:30pm 15.6 SSW 5 7 1005.0 - 7.8 - Cloudy 10 - - - -
25/11:00pm 16.1 SW 5 7 1005.0 - 7.6 - Partly cloudy 10 - - - -
25/10:31pm 16.2 W 11 14 1005.2 - 7.6 - Partly cloudy 10 - - - -
25/10:30pm 16.2 W 11 14 1005.2 - 7.6 - Partly cloudy 10 - - - -
25/10:15pm 16.3 W 12 17 1005.2 - 7.0 - Partly cloudy 6 - - - -
25/10:00pm 16.7 WNW 6 10 1005.2 - 6.8 - Partly cloudy 10 - - - -
25/09:30pm 15.7 CALM 0 0 1005.4 - 6.8 - Partly cloudy 10 - - - -
25/09:00pm 15.4 SSW 1 3 1005.6 - 6.8 - Partly cloudy 10 - - - -
25/08:30pm 15.0 CALM 0 0 1005.7 - 6.8 - Cloudy 10 - - - -
25/08:00pm 14.7 CALM 0 0 1005.4 - 6.8 - Partly cloudy 10 - - - -
25/07:30pm 14.3 S 4 5 1005.4 - 6.8 - Partly cloudy 10 - - - -
25/07:00pm 14.6 S 4 5 1005.1 - 6.8 - Partly cloudy 10 - - - -
25/06:30pm 14.7 CALM 0 0 1005.1 - 6.8 - Partly cloudy 10 - - - -
25/06:05pm 14.7 W 2 4 1004.9 - 6.8 - Partly cloudy 10 - - - -
25/06:00pm 14.7 NW 1 4 1004.8 - 6.8 - Partly cloudy 10 - - - -
25/05:30pm 15.5 NW 6 9 1005.2 - 4.2 - Cloudy 5 - - - -
25/05:00pm 17.7 N 6 9 1005.1 - 1.0 - Partly cloudy 6 - - - -
25/04:30pm 18.7 N 6 9 1004.9 - 0.0 - Cloudy 10 - - - -
25/04:00pm 18.9 NE 8 10 1004.3 - 0.0 - Partly cloudy 10 - - - -
25/03:30pm 19.3 N 2 7 1004.4 - 0.0 - Partly cloudy 10 - - - -
25/03:00pm 19.2 NW 3 6 1004.8 - 0.0 - Partly cloudy 10 - - - -
25/02:30pm 19.6 NNW 5 9 1005.1 - 0.0 - Cloudy 10 - - - -
25/02:00pm 19.9 N 5 8 1005.2 - 0.0 - Partly cloudy 10 - - - -
25/01:30pm 19.9 NNW 4 8 1005.4 - 0.0 - Partly cloudy 10 - - - -
25/01:00pm 19.6 N 6 9 1005.8 - 0.0 - Partly cloudy 10 - - - -
25/12:30pm 19.8 NW 4 9 1006.2 - 0.0 - Partly cloudy 10 - - - -
25/12:00pm 19.2 NNW 5 9 1006.6 - 0.0 - Partly cloudy 10 - - - -
25/11:30am 19.6 N 5 8 1007.1 - 0.0 - Mostly cloudy 10 - - - -
25/11:00am 19.9 WNW 6 8 1007.9 - 0.0 - Partly cloudy 10 - - - -
25/10:30am 19.3 W 5 7 1008.0 - 0.0 - Partly cloudy 10 - - - -
25/10:00am 19.4 W 5 6 1008.3 - 0.0 - - 10 - - - -
25/09:30am 19.2 W 5 6 1008.5 - 0.0 - - 10 - - - -
25/09:00am 19.6 W 5 7 1008.9 - 0.0 - Partly cloudy 10 - - - -
25/08:30am 19.1 WSW 4 5 1008.9 - 0.0 - - 10 - - - -
25/08:00am 18.8 NW 4 5 1009.1 - 0.0 - Partly cloudy 10 - - - -
25/07:53am 18.9 WNW 2 5 1009.1 - 0.0 - Partly cloudy 10 - - - -
25/07:39am 18.4 WSW 1 4 1009.2 - 0.0 - Partly cloudy 10 - - - -
25/07:30am 18.2 W 3 4 1009.4 - 0.0 - Partly cloudy 10 - - - -
25/07:00am 17.7 CALM 0 0 1009.1 - 0.0 - - 10 - - - -
25/06:30am 16.6 CALM 0 0 1009.2 - 0.0 - Partly cloudy 10 - - - -
25/06:00am 15.0 CALM 0 0 1009.1 - 0.0 - - 10 - - - -
25/05:46am 13.8 CALM 0 0 1009.1 - 0.0 - - 10 - - - -
25/05:30am 12.6 CALM 0 0 1008.9 F 0.0 Fine Mostly clear 25 - - - -
25/05:00am 12.5 CALM 0 0 1008.7 - 0.0 - - 2 - - - -
25/04:55am 12.4 CALM 0 0 1008.6 - 0.0 - - 6 - - - -
25/04:30am 13.2 CALM 0 0 1008.6 - 0.0 - - 10 - - - -
25/04:00am 12.9 CALM 0 0 1008.5 - 0.0 - - 10 - - - -
25/03:30am 13.5 CALM 0 0 1008.3 - 0.0 - - 10 - - - -
25/03:26am 13.4 CALM 0 0 1008.3 - 0.0 - - 10 - - - -
25/03:07am 12.6 CALM 0 0 1008.2 - 0.0 - - 5 - - - -
25/03:00am 13.0 CALM 0 0 1008.2 - 0.0 - - 10 - - - -
25/02:30am 13.9 CALM 0 0 1008.1 - 0.0 - - 10 - - - -
25/02:00am 13.4 CALM 0 0 1008.2 - 0.0 - - 10 - - - -
25/01:30am 14.2 CALM 0 0 1008.5 - 0.0 - - 10 - - - -
25/01:00am 14.4 CALM 0 0 1008.9 - 0.0 - Partly cloudy 10 - - - -
25/12:30am 14.6 S 2 5 1009.2 - 0.0 - Partly cloudy 10 - - - -
25/12:00am 15.7 SSW 2 5 1009.5 - 0.0 - - 10 - - - -
 
Date/Time
EST
Temp
°C
Wind Pressure Rain since
9am
mm
Weather Cloud Vis
km
Sea
Height
m
Swell
Dir  Spd
kts
Gust
kts
hPa Trend Height
m
Period
s
Dir
24/11:30pm 16.5 SSW 5 7 1009.5 - 0.0 - - 10 - - - -
24/11:00pm 16.5 SSW 5 6 1009.6 - 0.0 - - 10 - - - -
24/10:30pm 16.9 SSW 5 7 1009.9 - 0.0 - Partly cloudy 10 - - - -
24/10:00pm 17.6 SW 5 7 1010.1 - 0.0 - Partly cloudy 10 - - - -
24/09:30pm 17.5 SSW 5 7 1010.3 - 0.0 - Partly cloudy 10 - - - -
24/09:00pm 17.2 SSW 4 7 1010.2 - 0.0 - Partly cloudy 10 - - - -
24/08:30pm 16.7 SSW 3 4 1010.0 - 0.0 - - 10 - - - -
24/08:00pm 17.3 SSW 5 7 1010.0 - 0.0 - Partly cloudy 10 - - - -

Other Formats:

Comma delimited format used in spreadsheet applications
http://www.bom.gov.au/fwo/IDN60701/IDN60701.94995.axf

JavaScript Object Notation format (JSON) in row-major order
http://www.bom.gov.au/fwo/IDN60701/IDN60701.94995.json